Time;durP1;ratioP1;P1;durP2;ratioP2;P2;SDS_P1;SDS_P2;PMS_P1;PMS_P2;Temp;Humidity;BMP_temperature;BMP_pressure;BME280_temperature;BME280_humidity;BME280_pressure;Samples;Min_cycle;Max_cycle;Signal;HPM_P1;HPM_P2
2021/11/02 00:02:15;;;;;;;4.63;3.27;;;;;;;;;;4937958;29;20306;-70
2021/11/02 00:04:40;;;;;;;8.83;3.33;;;;;;;;;;4944518;28;20698;-70
2021/11/02 00:07:08;;;;;;;6.73;3.60;;;;;;;;;;4945924;28;20722;-70
2021/11/02 00:09:43;;;;;;;4.83;3.40;;;;;;;;;;4961117;28;20223;-70
2021/11/02 00:12:11;;;;;;;6.10;3.50;;;;;;;;;;4932031;28;20226;-70
2021/11/02 00:14:39;;;;;;;5.30;3.47;;;;;;;;;;4957699;28;20210;-70
2021/11/02 00:17:22;;;;;;;6.27;3.23;;;;;;;;;;4941224;28;20256;-69
2021/11/02 00:19:54;;;;;;;6.60;3.23;;;;;;;;;;4960097;28;20222;-70
2021/11/02 00:22:23;;;;;;;4.50;3.23;;;;;;;;;;4974050;28;20246;-71
2021/11/02 00:27:18;;;;;;;7.50;3.03;;;;;;;;;;4966201;28;20251;-71
2021/11/02 00:29:44;;;;;;;4.13;2.83;;;;;;;;;;4922347;29;20656;-70
2021/11/02 00:32:10;;;;;;;7.33;3.83;;;;;;;;;;4927950;28;20222;-71
2021/11/02 00:34:44;;;;;;;4.20;3.33;;;;;;;;;;4974219;28;20291;-70
2021/11/02 00:37:12;;;;;;;7.03;3.30;;;;;;;;;;4924808;28;20718;-70
2021/11/02 00:39:38;;;;;;;6.50;3.57;;;;;;;;;;4945109;28;20306;-70
2021/11/02 00:42:03;;;;;;;5.10;3.50;;;;;;;;;;4958714;28;20309;-70
2021/11/02 00:44:29;;;;;;;5.13;3.17;;;;;;;;;;4925013;28;20233;-70
2021/11/02 00:46:57;;;;;;;4.67;3.20;;;;;;;;;;4954546;28;20777;-70
2021/11/02 00:49:24;;;;;;;4.60;2.93;;;;;;;;;;4905941;29;20241;-69
2021/11/02 00:51:53;;;;;;;7.67;3.27;;;;;;;;;;4939032;28;20229;-70
2021/11/02 00:54:21;;;;;;;8.07;3.50;;;;;;;;;;4940366;28;20221;-70
2021/11/02 00:56:46;;;;;;;5.90;3.57;;;;;;;;;;4940647;28;20230;-70
2021/11/02 00:59:14;;;;;;;7.20;3.43;;;;;;;;;;4940496;28;20305;-70
2021/11/02 01:01:40;;;;;;;5.30;2.83;;;;;;;;;;4940428;28;20280;-70
2021/11/02 01:04:06;;;;;;;4.67;3.20;;;;;;;;;;4923358;28;20230;-70
2021/11/02 01:06:32;;;;;;;6.50;3.43;;;;;;;;;;4924803;28;20691;-69
2021/11/02 01:09:01;;;;;;;5.53;3.57;;;;;;;;;;4944830;28;20214;-70
2021/11/02 01:11:27;;;;;;;6.77;3.53;;;;;;;;;;4924498;28;20214;-70
2021/11/02 01:13:55;;;;;;;5.87;3.47;;;;;;;;;;4940487;28;20214;-70
2021/11/02 01:16:28;;;;;;;10.43;3.50;;;;;;;;;;4940281;28;20233;-69
2021/11/02 01:18:56;;;;;;;6.83;3.80;;;;;;;;;;4971854;28;20226;-69
2021/11/02 01:21:22;;;;;;;7.40;4.00;;;;;;;;;;4939888;28;20276;-71
2021/11/02 01:23:48;;;;;;;7.83;3.60;;;;;;;;;;4940419;28;20308;-71
2021/11/02 01:26:15;;;;;;;7.63;3.77;;;;;;;;;;4923922;28;20733;-70
2021/11/02 01:28:43;;;;;;;6.00;3.30;;;;;;;;;;4921106;29;20226;-71
2021/11/02 01:31:08;;;;;;;7.43;3.77;;;;;;;;;;4952683;28;20254;-71
2021/11/02 01:33:34;;;;;;;6.53;3.70;;;;;;;;;;4968830;28;20222;-71
2021/11/02 01:36:00;;;;;;;5.93;3.00;;;;;;;;;;4956091;28;20222;-72
2021/11/02 01:38:26;;;;;;;7.83;3.53;;;;;;;;;;4947078;28;20585;-69
2021/11/02 01:41:02;;;;;;;6.60;3.43;;;;;;;;;;4941182;28;20222;-72
2021/11/02 01:43:28;;;;;;;5.87;3.67;;;;;;;;;;4939968;28;20222;-69
2021/11/02 01:45:54;;;;;;;6.90;3.73;;;;;;;;;;4939599;28;20288;-71
2021/11/02 01:48:24;;;;;;;5.27;3.33;;;;;;;;;;4952482;28;20600;-71
2021/11/02 01:50:51;;;;;;;5.23;3.20;;;;;;;;;;4952273;28;20274;-69
2021/11/02 01:53:18;;;;;;;5.70;3.30;;;;;;;;;;4956839;28;20246;-70
2021/11/02 01:55:45;;;;;;;5.87;3.00;;;;;;;;;;4923484;28;20214;-70
2021/11/02 01:58:13;;;;;;;6.10;3.37;;;;;;;;;;4938794;28;20245;-70
2021/11/02 02:00:41;;;;;;;5.17;2.93;;;;;;;;;;4924795;28;20693;-71
2021/11/02 02:03:37;;;;;;;6.73;3.20;;;;;;;;;;4937934;28;20222;-71
2021/11/02 02:06:11;;;;;;;4.47;3.70;;;;;;;;;;4934039;29;20223;-71
2021/11/02 02:08:56;;;;;;;7.00;3.63;;;;;;;;;;4933296;28;20221;-71
2021/11/02 02:11:39;;;;;;;7.30;3.97;;;;;;;;;;4940696;28;20226;-70
2021/11/02 02:14:16;;;;;;;5.80;3.70;;;;;;;;;;4940168;28;20309;-70
2021/11/02 02:16:51;;;;;;;5.23;4.00;;;;;;;;;;4941391;28;20699;-70
2021/11/02 02:19:42;;;;;;;5.90;4.00;;;;;;;;;;4925622;28;20599;-70
2021/11/02 02:22:36;;;;;;;5.20;3.50;;;;;;;;;;4955179;28;20926;-70
2021/11/02 02:25:30;;;;;;;6.67;3.40;;;;;;;;;;4939645;28;20229;-70
2021/11/02 02:28:05;;;;;;;5.83;3.23;;;;;;;;;;4970905;28;20234;-70
2021/11/02 02:30:31;;;;;;;9.83;3.43;;;;;;;;;;4939111;28;20237;-70
2021/11/02 02:32:59;;;;;;;5.13;3.20;;;;;;;;;;4955409;28;20225;-69
2021/11/02 02:35:28;;;;;;;6.40;3.10;;;;;;;;;;4942285;28;20222;-70
2021/11/02 02:37:56;;;;;;;4.40;3.33;;;;;;;;;;4931367;28;20226;-72
2021/11/02 02:40:22;;;;;;;5.93;3.73;;;;;;;;;;4931589;29;21745;-72
2021/11/02 02:42:48;;;;;;;5.83;3.23;;;;;;;;;;4946363;29;20246;-70
2021/11/02 02:45:16;;;;;;;7.73;3.57;;;;;;;;;;4940751;28;20230;-70
2021/11/02 02:47:43;;;;;;;9.63;4.10;;;;;;;;;;4946482;28;20238;-72
2021/11/02 02:50:09;;;;;;;6.60;3.60;;;;;;;;;;4944745;28;20799;-72
2021/11/02 02:52:36;;;;;;;6.47;4.13;;;;;;;;;;4945803;28;20222;-72
2021/11/02 02:55:02;;;;;;;6.77;3.97;;;;;;;;;;4976522;28;20237;-71
2021/11/02 02:57:28;;;;;;;7.73;3.80;;;;;;;;;;4944060;28;20221;-71
2021/11/02 03:00:04;;;;;;;4.97;3.80;;;;;;;;;;4940009;28;20214;-70
2021/11/02 03:02:35;;;;;;;6.43;3.30;;;;;;;;;;4923772;28;20217;-70
2021/11/02 03:05:04;;;;;;;8.83;3.70;;;;;;;;;;4938457;28;20643;-69
2021/11/02 03:07:30;;;;;;;6.87;3.67;;;;;;;;;;4927066;28;20215;-70
2021/11/02 03:09:57;;;;;;;7.70;4.27;;;;;;;;;;4950114;28;20313;-70
2021/11/02 03:12:31;;;;;;;4.33;3.90;;;;;;;;;;4922527;28;20747;-69
2021/11/02 03:15:37;;;;;;;6.93;3.70;;;;;;;;;;4953944;28;20589;-70
2021/11/02 03:18:12;;;;;;;5.83;3.50;;;;;;;;;;4928133;28;20277;-69
2021/11/02 03:43:31;;;;;;;3.77;3.37;;;;;;;;;;4937362;28;20214;-69
2021/11/02 03:48:21;;;;;;;5.60;3.77;;;;;;;;;;4941744;28;20238;-71
2021/11/02 03:51:15;;;;;;;4.37;3.13;;;;;;;;;;4944279;28;20662;-71
2021/11/02 04:02:14;;;;;;;5.73;3.80;;;;;;;;;;4953987;28;20217;-70
2021/11/02 04:33:14;;;;;;;8.87;4.10;;;;;;;;;;4940022;28;20767;-70
2021/11/02 05:08:39;;;;;;;6.07;3.80;;;;;;;;;;4927483;28;20245;-71
2021/11/02 05:46:58;;;;;;;6.50;4.20;;;;;;;;;;4927061;28;20709;-71
2021/11/02 05:49:47;;;;;;;7.60;4.37;;;;;;;;;;4928220;28;20294;-71
2021/11/02 05:55:26;;;;;;;6.30;3.53;;;;;;;;;;4928697;28;20225;-70
2021/11/02 06:00:39;;;;;;;6.13;4.03;;;;;;;;;;4957653;28;20229;-70
2021/11/02 06:05:59;;;;;;;5.10;4.13;;;;;;;;;;4957890;28;20308;-71
2021/11/02 06:28:52;;;;;;;6.27;4.40;;;;;;;;;;4958573;28;20234;-69
2021/11/02 06:31:26;;;;;;;7.47;4.43;;;;;;;;;;4968093;28;20741;-71
2021/11/02 06:34:16;;;;;;;5.90;4.47;;;;;;;;;;4947613;28;20636;-70
2021/11/02 06:47:38;;;;;;;7.93;5.17;;;;;;;;;;4940523;28;20605;-70
2021/11/02 06:53:10;;;;;;;10.50;6.27;;;;;;;;;;4938602;29;20716;-70
2021/11/02 06:55:59;;;;;;;7.93;6.17;;;;;;;;;;4937164;29;20223;-71
2021/11/02 07:22:57;;;;;;;6.17;4.73;;;;;;;;;;4954720;28;20229;-70
2021/11/02 08:47:05;;;;;;;9.53;4.40;;;;;;;;;;4927526;29;20237;-70
2021/11/02 08:49:31;;;;;;;5.77;4.00;;;;;;;;;;4954016;28;20277;-69
2021/11/02 08:51:57;;;;;;;4.87;4.33;;;;;;;;;;4941661;28;20226;-70
2021/11/02 08:54:24;;;;;;;6.20;4.37;;;;;;;;;;4956853;28;20225;-69
2021/11/02 08:56:51;;;;;;;5.50;3.83;;;;;;;;;;4955454;28;20222;-70
2021/11/02 08:59:16;;;;;;;6.33;4.50;;;;;;;;;;4924776;28;20226;-69
2021/11/02 09:01:42;;;;;;;6.63;4.87;;;;;;;;;;4940882;29;20226;-71
2021/11/02 09:04:08;;;;;;;4.97;4.17;;;;;;;;;;4953559;29;20302;-71
2021/11/02 09:06:33;;;;;;;5.93;4.70;;;;;;;;;;4916082;29;20885;-70
2021/11/02 09:09:01;;;;;;;5.57;4.37;;;;;;;;;;4960070;28;20221;-70
2021/11/02 09:11:30;;;;;;;5.47;4.00;;;;;;;;;;4952740;28;20240;-70
2021/11/02 09:13:56;;;;;;;6.70;4.37;;;;;;;;;;4938548;29;20301;-70
2021/11/02 09:16:25;;;;;;;6.90;4.17;;;;;;;;;;4939927;28;20222;-71
2021/11/02 09:18:52;;;;;;;6.50;4.90;;;;;;;;;;4944163;28;20234;-71
2021/11/02 09:21:18;;;;;;;5.23;4.03;;;;;;;;;;4927351;28;20268;-71
2021/11/02 09:23:49;;;;;;;6.77;4.70;;;;;;;;;;4967036;28;20218;-68
2021/11/02 09:26:16;;;;;;;5.77;5.03;;;;;;;;;;4960654;28;20699;-71
2021/11/02 09:28:42;;;;;;;8.10;4.47;;;;;;;;;;4949987;28;20786;-70
2021/11/02 09:31:12;;;;;;;6.97;4.93;;;;;;;;;;4951501;28;20233;-70
2021/11/02 09:33:37;;;;;;;6.97;4.80;;;;;;;;;;4948786;28;20234;-70
2021/11/02 09:36:07;;;;;;;7.43;4.30;;;;;;;;;;4975319;28;20870;-72
2021/11/02 09:38:54;;;;;;;5.97;4.30;;;;;;;;;;4945194;28;20245;-70
2021/11/02 09:41:57;;;;;;;5.73;4.07;;;;;;;;;;4966962;28;20246;-70
2021/11/02 09:44:27;;;;;;;5.73;4.17;;;;;;;;;;4952848;28;20250;-71
2021/11/02 09:47:52;;;;;;;7.73;4.63;;;;;;;;;;4966237;28;20774;-70
2021/11/02 09:50:49;;;;;;;8.63;4.40;;;;;;;;;;4869351;28;20320;-71
2021/11/02 09:53:32;;;;;;;10.47;5.10;;;;;;;;;;4939244;29;20215;-69
2021/11/02 09:56:14;;;;;;;6.67;5.43;;;;;;;;;;4940882;28;20233;-70
2021/11/02 09:59:07;;;;;;;8.77;5.80;;;;;;;;;;4972274;28;20280;-70
2021/11/02 10:01:48;;;;;;;7.97;5.27;;;;;;;;;;4941357;28;20305;-69
2021/11/02 10:04:22;;;;;;;9.87;5.37;;;;;;;;;;4972908;28;20285;-70
2021/11/02 10:07:00;;;;;;;8.67;4.63;;;;;;;;;;4974064;28;20228;-70
2021/11/02 10:09:29;;;;;;;6.63;5.20;;;;;;;;;;4931553;28;20236;-70
2021/11/02 10:12:17;;;;;;;7.87;5.30;;;;;;;;;;4965627;28;20227;-69
2021/11/02 10:14:48;;;;;;;8.90;6.13;;;;;;;;;;4968096;28;20277;-69
2021/11/02 10:17:41;;;;;;;8.63;5.37;;;;;;;;;;4962758;28;20238;-70
2021/11/02 10:20:23;;;;;;;5.87;4.80;;;;;;;;;;4972704;28;20747;-71
2021/11/02 10:23:13;;;;;;;10.97;5.70;;;;;;;;;;4973504;28;20636;-69
2021/11/02 10:26:07;;;;;;;8.37;5.43;;;;;;;;;;4956286;28;20252;-70
2021/11/02 10:29:12;;;;;;;9.43;5.67;;;;;;;;;;4937956;29;20720;-68
2021/11/02 10:31:48;;;;;;;10.43;7.23;;;;;;;;;;4941660;28;20213;-70
2021/11/02 10:34:22;;;;;;;10.67;7.77;;;;;;;;;;4923514;28;20538;-72
2021/11/02 10:36:56;;;;;;;8.60;5.90;;;;;;;;;;4955699;28;20229;-70
2021/11/02 10:39:25;;;;;;;9.70;6.20;;;;;;;;;;4931404;28;20257;-70
2021/11/02 10:42:18;;;;;;;7.60;5.43;;;;;;;;;;4956627;28;20749;-68
2021/11/02 10:44:48;;;;;;;8.80;5.50;;;;;;;;;;4924622;28;20226;-70
2021/11/02 10:47:17;;;;;;;6.83;5.23;;;;;;;;;;4967539;28;20301;-70
2021/11/02 10:49:53;;;;;;;10.47;6.70;;;;;;;;;;4952196;28;20222;-70
2021/11/02 10:52:26;;;;;;;10.33;6.50;;;;;;;;;;4957470;28;20276;-69
2021/11/02 10:54:58;;;;;;;10.47;6.00;;;;;;;;;;4971035;28;20696;-70
2021/11/02 10:57:23;;;;;;;8.90;6.43;;;;;;;;;;4954665;28;20230;-72
2021/11/02 10:59:49;;;;;;;10.43;6.30;;;;;;;;;;4971031;28;20523;-70
2021/11/02 11:02:27;;;;;;;9.87;6.53;;;;;;;;;;4954463;28;20230;-70
2021/11/02 11:04:59;;;;;;;9.07;6.83;;;;;;;;;;4972279;28;20230;-70
2021/11/02 11:07:28;;;;;;;9.60;6.57;;;;;;;;;;4954450;28;20218;-70
2021/11/02 11:09:56;;;;;;;9.63;6.47;;;;;;;;;;4924994;28;20297;-69
2021/11/02 11:12:24;;;;;;;8.50;5.97;;;;;;;;;;4939104;28;21460;-69
2021/11/02 11:14:52;;;;;;;8.07;6.00;;;;;;;;;;4970444;28;20224;-70
2021/11/02 11:17:25;;;;;;;11.23;5.73;;;;;;;;;;4919993;28;20273;-71
2021/11/02 11:20:06;;;;;;;8.40;5.67;;;;;;;;;;4935495;29;20222;-69
2021/11/02 11:22:43;;;;;;;8.27;5.30;;;;;;;;;;4954645;28;20214;-69
2021/11/02 11:25:11;;;;;;;8.93;5.73;;;;;;;;;;4921451;28;20233;-70
2021/11/02 11:27:43;;;;;;;10.20;5.37;;;;;;;;;;4938858;28;20313;-69
2021/11/02 11:30:08;;;;;;;7.00;4.80;;;;;;;;;;4923032;28;20218;-70
2021/11/02 11:32:44;;;;;;;8.00;4.97;;;;;;;;;;4954640;28;20218;-70
2021/11/02 11:35:12;;;;;;;6.80;4.97;;;;;;;;;;4938525;28;20349;-71
2021/11/02 11:37:39;;;;;;;9.07;5.00;;;;;;;;;;4928034;28;20695;-71
2021/11/02 11:40:06;;;;;;;11.20;5.10;;;;;;;;;;4937225;28;20305;-70
2021/11/02 11:42:32;;;;;;;8.17;4.80;;;;;;;;;;4953794;28;20226;-70
2021/11/02 11:45:02;;;;;;;5.47;4.17;;;;;;;;;;4950878;29;20231;-70
2021/11/02 11:47:28;;;;;;;8.80;4.03;;;;;;;;;;4934172;29;20270;-70
2021/11/02 11:49:54;;;;;;;7.77;4.60;;;;;;;;;;4954633;28;20325;-69
2021/11/02 11:52:21;;;;;;;6.93;4.27;;;;;;;;;;4937306;28;20255;-70
2021/11/02 11:54:56;;;;;;;9.23;4.80;;;;;;;;;;4971077;28;20245;-69
2021/11/02 11:57:32;;;;;;;5.77;4.10;;;;;;;;;;4954411;28;20264;-70
2021/11/02 12:00:03;;;;;;;6.83;3.60;;;;;;;;;;4935896;29;20442;-71
2021/11/02 12:03:00;;;;;;;5.97;3.50;;;;;;;;;;4936579;29;20226;-70
2021/11/02 12:05:26;;;;;;;4.83;3.30;;;;;;;;;;4934201;29;20226;-70
2021/11/02 12:08:09;;;;;;;6.07;3.60;;;;;;;;;;4925027;28;20222;-72
2021/11/02 12:10:36;;;;;;;7.93;4.53;;;;;;;;;;4934601;29;20318;-70
2021/11/02 12:13:07;;;;;;;4.67;3.20;;;;;;;;;;4952926;28;20642;-70
2021/11/02 12:16:10;;;;;;;8.13;4.00;;;;;;;;;;4922345;28;20731;-70
2021/11/02 12:18:47;;;;;;;6.47;3.57;;;;;;;;;;4963881;28;20643;-71
2021/11/02 12:21:17;;;;;;;6.90;3.83;;;;;;;;;;4950653;29;20313;-71
2021/11/02 12:23:45;;;;;;;6.50;3.50;;;;;;;;;;4924228;28;20228;-70
2021/11/02 12:26:11;;;;;;;7.47;4.00;;;;;;;;;;4922336;28;20226;-70
2021/11/02 12:28:47;;;;;;;8.03;4.50;;;;;;;;;;4922238;28;20593;-70
2021/11/02 12:31:19;;;;;;;7.80;4.77;;;;;;;;;;4969640;28;20700;-71
2021/11/02 12:33:52;;;;;;;6.93;4.60;;;;;;;;;;4971396;28;20213;-70
2021/11/02 12:36:21;;;;;;;8.93;4.23;;;;;;;;;;4922569;28;20287;-72
2021/11/02 12:38:58;;;;;;;7.50;4.40;;;;;;;;;;4946325;28;20222;-71
2021/11/02 12:41:26;;;;;;;5.67;3.67;;;;;;;;;;4922976;28;20216;-70
2021/11/02 12:44:09;;;;;;;7.53;4.63;;;;;;;;;;4955133;28;20297;-71
2021/11/02 12:46:39;;;;;;;6.50;4.00;;;;;;;;;;4970713;28;20218;-70
2021/11/02 12:49:06;;;;;;;6.27;4.07;;;;;;;;;;4948606;29;20588;-70
2021/11/02 12:51:34;;;;;;;6.43;3.53;;;;;;;;;;4950808;29;20250;-70
2021/11/02 12:54:03;;;;;;;6.17;4.23;;;;;;;;;;4923045;28;20215;-70
2021/11/02 12:56:29;;;;;;;6.63;4.03;;;;;;;;;;4969554;28;20229;-71
2021/11/02 12:59:14;;;;;;;7.80;5.50;;;;;;;;;;4935376;28;20229;-71
2021/11/02 13:01:43;;;;;;;44.93;28.43;;;;;;;;;;4952111;28;20223;-72
2021/11/02 13:04:11;;;;;;;49.27;26.37;;;;;;;;;;4910233;28;20305;-72
2021/11/02 13:06:42;;;;;;;71.70;43.43;;;;;;;;;;4937116;29;20214;-71
2021/11/02 13:09:08;;;;;;;12.73;8.37;;;;;;;;;;4964972;28;20230;-71
2021/11/02 13:11:34;;;;;;;7.77;5.13;;;;;;;;;;4941389;28;20660;-72
2021/11/02 13:14:07;;;;;;;11.03;5.00;;;;;;;;;;4972794;28;20738;-71
2021/11/02 13:17:13;;;;;;;5.20;3.87;;;;;;;;;;4952665;29;20235;-71
2021/11/02 13:19:41;;;;;;;8.87;4.13;;;;;;;;;;4866496;29;20323;-71
2021/11/02 13:22:16;;;;;;;10.10;4.00;;;;;;;;;;4894951;29;20728;-71
2021/11/02 13:25:22;;;;;;;5.37;3.83;;;;;;;;;;4933387;28;20310;-72
2021/11/02 13:27:54;;;;;;;8.20;4.27;;;;;;;;;;4901543;28;20219;-70
2021/11/02 13:30:36;;;;;;;5.37;4.13;;;;;;;;;;4930746;28;20687;-72
2021/11/02 13:33:07;;;;;;;8.80;4.10;;;;;;;;;;4942725;28;20229;-70
2021/11/02 13:35:51;;;;;;;6.23;3.97;;;;;;;;;;4973167;28;20252;-71
2021/11/02 13:38:26;;;;;;;6.07;3.40;;;;;;;;;;4965413;28;20229;-71
2021/11/02 13:40:55;;;;;;;6.37;3.80;;;;;;;;;;4956867;28;20234;-71
2021/11/02 13:43:40;;;;;;;6.53;3.90;;;;;;;;;;4924877;28;20269;-71
2021/11/02 13:46:10;;;;;;;6.63;3.83;;;;;;;;;;4939469;28;20226;-71
2021/11/02 13:48:40;;;;;;;6.17;3.57;;;;;;;;;;4955899;28;20234;-70
2021/11/02 13:51:07;;;;;;;7.90;4.50;;;;;;;;;;4960226;28;20607;-70
2021/11/02 13:53:34;;;;;;;7.67;3.60;;;;;;;;;;4921253;29;20219;-70
2021/11/02 13:56:07;;;;;;;6.00;4.00;;;;;;;;;;4948170;28;20222;-70
2021/11/02 13:58:33;;;;;;;7.97;3.67;;;;;;;;;;4956623;28;20268;-70
2021/11/02 14:01:03;;;;;;;5.47;3.47;;;;;;;;;;4955838;28;20234;-71
2021/11/02 14:03:32;;;;;;;4.73;3.60;;;;;;;;;;4941376;28;20226;-70
2021/11/02 14:05:59;;;;;;;5.27;3.83;;;;;;;;;;4956100;28;20230;-71
2021/11/02 14:08:28;;;;;;;4.73;4.03;;;;;;;;;;4922696;28;20230;-70
2021/11/02 14:10:54;;;;;;;5.87;4.73;;;;;;;;;;4940068;28;20732;-70
2021/11/02 14:13:43;;;;;;;6.37;5.33;;;;;;;;;;4955967;28;20214;-70
2021/11/02 14:16:09;;;;;;;7.80;5.57;;;;;;;;;;4954952;28;20249;-70
2021/11/02 14:18:35;;;;;;;7.23;5.70;;;;;;;;;;4940198;28;20229;-71
2021/11/02 14:21:03;;;;;;;9.43;5.27;;;;;;;;;;4955888;28;20226;-71
2021/11/02 14:23:52;;;;;;;9.90;6.50;;;;;;;;;;4956086;28;20831;-71
2021/11/02 14:26:35;;;;;;;5.97;5.37;;;;;;;;;;4957586;28;20226;-70
2021/11/02 14:29:03;;;;;;;11.83;5.40;;;;;;;;;;4972676;28;20670;-71
2021/11/02 14:31:34;;;;;;;7.03;5.10;;;;;;;;;;4972102;28;20297;-71
2021/11/02 14:34:00;;;;;;;9.17;5.80;;;;;;;;;;4972293;28;20222;-71
2021/11/02 14:36:44;;;;;;;9.17;5.63;;;;;;;;;;4939780;28;20214;-70
2021/11/02 14:39:11;;;;;;;12.37;5.70;;;;;;;;;;4971136;28;20226;-70
2021/11/02 14:41:49;;;;;;;10.07;6.10;;;;;;;;;;4962242;28;20219;-70
2021/11/02 14:44:17;;;;;;;9.73;6.93;;;;;;;;;;4953811;28;20238;-70
2021/11/02 14:46:46;;;;;;;10.83;7.23;;;;;;;;;;4967989;28;20214;-71
2021/11/02 14:49:30;;;;;;;6.97;5.53;;;;;;;;;;4968063;28;20260;-71
2021/11/02 14:51:59;;;;;;;9.60;5.40;;;;;;;;;;4984170;28;20229;-70
2021/11/02 14:54:29;;;;;;;7.60;4.80;;;;;;;;;;4934195;28;20222;-70
2021/11/02 14:57:18;;;;;;;7.37;4.80;;;;;;;;;;4948951;28;20253;-70
2021/11/02 14:59:57;;;;;;;8.63;5.10;;;;;;;;;;4949530;28;20241;-70
2021/11/02 15:02:41;;;;;;;8.07;6.00;;;;;;;;;;4940982;29;20223;-71
2021/11/02 15:05:22;;;;;;;11.37;6.23;;;;;;;;;;4935278;29;20261;-70
2021/11/02 15:07:48;;;;;;;7.33;5.90;;;;;;;;;;4964425;28;20692;-70
2021/11/02 15:10:15;;;;;;;7.20;5.60;;;;;;;;;;4954783;28;20300;-70
2021/11/02 15:12:49;;;;;;;6.83;4.80;;;;;;;;;;4956387;28;20218;-70
2021/11/02 15:15:14;;;;;;;4.90;4.40;;;;;;;;;;4952137;29;20235;-69
2021/11/02 15:17:40;;;;;;;4.90;4.40;;;;;;;;;;4949701;28;20767;-70
2021/11/02 15:20:08;;;;;;;5.77;3.77;;;;;;;;;;4954767;28;20226;-69
2021/11/02 15:22:34;;;;;;;4.87;3.80;;;;;;;;;;4960956;28;20226;-70
2021/11/02 15:25:01;;;;;;;5.67;3.83;;;;;;;;;;4951400;29;20243;-69
2021/11/02 15:27:32;;;;;;;5.23;4.10;;;;;;;;;;4937786;28;20225;-69
2021/11/02 15:30:05;;;;;;;6.57;4.33;;;;;;;;;;4938752;28;20715;-70
2021/11/02 15:32:41;;;;;;;6.00;4.40;;;;;;;;;;4953946;28;20695;-70
2021/11/02 15:35:13;;;;;;;5.10;4.40;;;;;;;;;;4954094;28;20225;-70
2021/11/02 15:37:48;;;;;;;5.53;4.10;;;;;;;;;;4940127;28;20780;-69
2021/11/02 15:40:22;;;;;;;6.93;3.60;;;;;;;;;;4946168;28;20222;-70
2021/11/02 15:42:51;;;;;;;7.33;3.80;;;;;;;;;;4952223;28;20658;-70
2021/11/02 15:45:30;;;;;;;4.73;3.37;;;;;;;;;;4945296;28;20237;-70
2021/11/02 15:48:02;;;;;;;5.73;3.63;;;;;;;;;;4969963;28;20214;-71
2021/11/02 15:50:28;;;;;;;6.03;3.50;;;;;;;;;;4954278;28;20301;-70
2021/11/02 15:53:02;;;;;;;4.27;3.50;;;;;;;;;;4959244;28;20604;-70
2021/11/02 15:55:28;;;;;;;4.23;3.07;;;;;;;;;;4934792;29;20228;-70
2021/11/02 15:57:59;;;;;;;9.43;4.37;;;;;;;;;;4944468;28;20218;-70
2021/11/02 16:00:34;;;;;;;4.93;3.10;;;;;;;;;;4937181;28;20218;-70
2021/11/02 16:03:03;;;;;;;5.37;3.33;;;;;;;;;;4960966;28;20299;-70
2021/11/02 16:05:30;;;;;;;4.80;3.20;;;;;;;;;;4935514;28;20714;-71
2021/11/02 16:07:58;;;;;;;5.87;3.20;;;;;;;;;;4934024;28;20226;-71
2021/11/02 16:10:28;;;;;;;6.43;3.50;;;;;;;;;;4937657;28;20218;-71
2021/11/02 16:12:54;;;;;;;6.57;3.30;;;;;;;;;;4940431;28;20284;-71
2021/11/02 16:15:27;;;;;;;6.37;3.23;;;;;;;;;;4966694;28;20711;-69
2021/11/02 16:17:59;;;;;;;4.70;3.20;;;;;;;;;;4947211;28;20778;-70
2021/11/02 16:20:36;;;;;;;6.63;4.20;;;;;;;;;;4940255;28;20228;-70
2021/11/02 16:23:12;;;;;;;6.23;3.33;;;;;;;;;;4943348;28;20228;-70
2021/11/02 16:25:43;;;;;;;4.87;2.77;;;;;;;;;;4937143;28;20241;-69
2021/11/02 16:28:17;;;;;;;3.33;2.97;;;;;;;;;;4974317;28;20272;-70
2021/11/02 16:30:45;;;;;;;4.20;2.67;;;;;;;;;;4943148;28;20224;-69
2021/11/02 16:33:13;;;;;;;4.20;2.90;;;;;;;;;;4969767;28;20226;-71
2021/11/02 16:35:42;;;;;;;4.70;3.13;;;;;;;;;;4947134;28;20223;-72
2021/11/02 16:38:26;;;;;;;3.90;3.03;;;;;;;;;;4961330;28;20238;-71
2021/11/02 16:40:56;;;;;;;3.20;2.83;;;;;;;;;;4953777;28;20237;-69
2021/11/02 16:43:45;;;;;;;5.43;2.90;;;;;;;;;;4949764;28;20231;-69
2021/11/02 16:46:18;;;;;;;4.70;3.37;;;;;;;;;;4951751;28;20241;-69
2021/11/02 16:48:49;;;;;;;4.67;2.97;;;;;;;;;;4939736;28;20309;-70
2021/11/02 16:51:18;;;;;;;4.93;2.90;;;;;;;;;;4922874;28;20258;-70
2021/11/02 16:53:44;;;;;;;5.93;3.73;;;;;;;;;;4949701;29;20768;-71
2021/11/02 16:56:21;;;;;;;4.03;3.63;;;;;;;;;;4913746;29;20215;-69
2021/11/02 16:58:50;;;;;;;4.10;3.47;;;;;;;;;;4923368;28;20222;-70
2021/11/02 17:01:24;;;;;;;5.90;3.70;;;;;;;;;;4964595;28;20625;-70
2021/11/02 17:03:52;;;;;;;5.87;3.77;;;;;;;;;;4947479;29;20225;-70
2021/11/02 17:06:24;;;;;;;6.60;4.00;;;;;;;;;;4928387;28;20672;-70
2021/11/02 17:09:11;;;;;;;7.17;4.17;;;;;;;;;;4951780;28;20227;-70
2021/11/02 17:11:46;;;;;;;5.83;4.10;;;;;;;;;;4964778;28;20325;-70
2021/11/02 17:14:12;;;;;;;7.17;4.67;;;;;;;;;;4944353;28;20269;-70
2021/11/02 17:16:42;;;;;;;7.30;4.80;;;;;;;;;;4967802;28;20233;-70
2021/11/02 17:19:10;;;;;;;6.60;4.87;;;;;;;;;;4924970;28;20226;-70
2021/11/02 17:21:37;;;;;;;9.23;4.70;;;;;;;;;;4940273;28;20214;-69
2021/11/02 17:24:04;;;;;;;6.33;4.70;;;;;;;;;;4935523;28;20796;-70
2021/11/02 17:26:30;;;;;;;7.67;4.20;;;;;;;;;;4929343;28;20233;-69
2021/11/02 17:28:59;;;;;;;5.20;4.63;;;;;;;;;;4950517;28;20225;-69
2021/11/02 17:31:37;;;;;;;5.40;4.90;;;;;;;;;;4946715;28;20238;-70
2021/11/02 17:34:07;;;;;;;6.93;4.93;;;;;;;;;;4950011;29;20749;-70
2021/11/02 17:36:36;;;;;;;5.60;5.00;;;;;;;;;;4934298;28;20218;-69
2021/11/02 17:39:06;;;;;;;6.53;4.43;;;;;;;;;;4953365;28;20226;-70
2021/11/02 17:41:34;;;;;;;8.07;5.07;;;;;;;;;;4956327;28;20218;-70
2021/11/02 17:44:00;;;;;;;6.87;5.23;;;;;;;;;;4941300;28;20217;-70
2021/11/02 17:46:26;;;;;;;6.07;5.23;;;;;;;;;;4945812;28;20218;-70
2021/11/02 17:48:52;;;;;;;5.27;4.77;;;;;;;;;;4956432;28;20306;-69
2021/11/02 17:51:21;;;;;;;7.47;5.57;;;;;;;;;;4955154;28;20742;-69
2021/11/02 17:53:46;;;;;;;6.83;5.20;;;;;;;;;;4953890;28;20218;-69
2021/11/02 17:56:13;;;;;;;6.67;5.97;;;;;;;;;;4952891;28;20623;-69
2021/11/02 17:58:39;;;;;;;11.13;8.20;;;;;;;;;;4951886;28;20222;-69
2021/11/02 18:01:09;;;;;;;12.07;9.43;;;;;;;;;;4944427;28;20703;-70
2021/11/02 18:03:36;;;;;;;7.53;6.20;;;;;;;;;;4932429;28;20226;-69
2021/11/02 18:06:03;;;;;;;7.70;6.10;;;;;;;;;;4973340;28;20820;-69
2021/11/02 18:08:34;;;;;;;7.97;6.50;;;;;;;;;;4960706;28;20231;-69
2021/11/02 18:11:02;;;;;;;8.53;6.67;;;;;;;;;;4938932;28;20230;-69
2021/11/02 18:13:31;;;;;;;9.80;6.73;;;;;;;;;;4955902;28;20952;-68
2021/11/02 18:15:57;;;;;;;8.90;7.10;;;;;;;;;;4939817;28;20214;-70
2021/11/02 18:18:23;;;;;;;8.37;6.50;;;;;;;;;;4939446;28;20758;-69
2021/11/02 18:20:48;;;;;;;7.83;7.07;;;;;;;;;;4939927;28;20313;-69
2021/11/02 18:23:14;;;;;;;8.27;6.10;;;;;;;;;;4952005;28;20964;-70
2021/11/02 18:25:42;;;;;;;8.37;6.13;;;;;;;;;;4954806;28;20229;-69
2021/11/02 18:28:10;;;;;;;7.13;6.43;;;;;;;;;;4965954;28;20226;-70
2021/11/02 18:30:38;;;;;;;9.50;6.30;;;;;;;;;;4967818;28;20221;-69
2021/11/02 18:33:05;;;;;;;8.37;6.27;;;;;;;;;;4932602;28;20209;-70
2021/11/02 18:35:33;;;;;;;7.47;6.07;;;;;;;;;;4972803;28;20233;-69
2021/11/02 18:38:04;;;;;;;7.37;6.30;;;;;;;;;;4955478;28;20218;-69
2021/11/02 18:40:30;;;;;;;7.50;6.10;;;;;;;;;;4971930;28;20222;-69
2021/11/02 18:42:56;;;;;;;6.27;5.33;;;;;;;;;;4951515;29;20217;-71
2021/11/02 18:45:23;;;;;;;7.00;5.93;;;;;;;;;;4963249;28;20242;-71
2021/11/02 18:47:56;;;;;;;9.17;5.43;;;;;;;;;;4924780;28;20534;-69
2021/11/02 18:50:21;;;;;;;9.70;5.73;;;;;;;;;;4963705;28;20219;-69
2021/11/02 18:52:47;;;;;;;7.77;5.40;;;;;;;;;;4921964;29;20345;-71
2021/11/02 18:55:13;;;;;;;7.70;5.73;;;;;;;;;;4961406;28;20276;-70
2021/11/02 18:57:38;;;;;;;7.87;5.17;;;;;;;;;;4957731;28;20228;-68
2021/11/02 19:00:12;;;;;;;8.03;5.80;;;;;;;;;;4942543;28;20614;-69
2021/11/02 19:02:37;;;;;;;7.17;6.47;;;;;;;;;;4943324;28;20226;-70
2021/11/02 19:05:04;;;;;;;7.70;6.20;;;;;;;;;;4939799;28;20222;-70
2021/11/02 19:07:34;;;;;;;5.90;5.33;;;;;;;;;;4934194;28;20252;-69
2021/11/02 19:10:05;;;;;;;8.90;5.67;;;;;;;;;;4968622;28;20214;-69
2021/11/02 19:12:31;;;;;;;7.90;5.63;;;;;;;;;;4972422;28;20214;-70
2021/11/02 19:14:57;;;;;;;7.20;5.80;;;;;;;;;;4922021;28;20843;-70
2021/11/02 19:17:23;;;;;;;7.00;5.53;;;;;;;;;;4934146;28;20715;-70
2021/11/02 19:19:48;;;;;;;6.00;4.50;;;;;;;;;;4937142;28;20320;-70
2021/11/02 19:22:14;;;;;;;5.50;4.90;;;;;;;;;;4952094;28;20294;-71
2021/11/02 19:24:39;;;;;;;7.87;5.33;;;;;;;;;;4946805;28;20721;-69
2021/11/02 19:27:08;;;;;;;5.90;5.30;;;;;;;;;;4954490;28;20768;-70
2021/11/02 19:29:34;;;;;;;8.60;6.67;;;;;;;;;;4919477;29;20227;-70
2021/11/02 19:32:00;;;;;;;10.50;9.37;;;;;;;;;;4951225;28;20222;-69
2021/11/02 19:34:26;;;;;;;13.23;11.93;;;;;;;;;;4953750;28;20246;-70
2021/11/02 19:36:52;;;;;;;14.73;13.30;;;;;;;;;;4940432;28;20248;-69
2021/11/02 19:39:19;;;;;;;14.07;12.53;;;;;;;;;;4952307;28;20229;-70
2021/11/02 19:41:47;;;;;;;14.97;12.33;;;;;;;;;;4949170;28;20214;-69
2021/11/02 19:44:13;;;;;;;9.47;8.47;;;;;;;;;;4946277;28;20227;-70
2021/11/02 19:46:39;;;;;;;7.50;5.63;;;;;;;;;;4922475;28;20230;-69
2021/11/02 19:49:04;;;;;;;8.60;5.83;;;;;;;;;;4970362;28;20226;-69
2021/11/02 19:51:32;;;;;;;6.57;5.70;;;;;;;;;;4948172;28;20215;-70